createdAt,value
2022-11-07T00:01:39.646Z,0.28
2022-11-07T00:04:06.244Z,0.32
2022-11-07T00:06:33.160Z,0.37
2022-11-07T00:08:59.619Z,0.45
2022-11-07T00:11:26.053Z,0.48
2022-11-07T00:13:52.431Z,0.34
2022-11-07T00:16:19.139Z,0.22
2022-11-07T00:18:45.661Z,0.26
2022-11-07T00:21:12.117Z,0.32
2022-11-07T00:23:40.653Z,0.40
2022-11-07T00:26:10.353Z,0.46
2022-11-07T00:28:39.564Z,0.49
2022-11-07T00:31:07.967Z,0.48
2022-11-07T00:33:35.092Z,0.46
2022-11-07T00:36:01.628Z,0.52
2022-11-07T00:38:28.548Z,0.58
2022-11-07T00:40:56.571Z,0.60
2022-11-07T00:43:23.580Z,0.65
2022-11-07T00:45:50.130Z,0.66
2022-11-07T00:48:16.587Z,0.66
2022-11-07T00:50:43.426Z,0.66
2022-11-07T00:53:10.044Z,0.69
2022-11-07T00:55:36.581Z,0.67
2022-11-07T00:58:03.530Z,0.62
2022-11-07T01:00:30.065Z,0.59
2022-11-07T01:03:15.584Z,0.54
2022-11-07T01:05:42.228Z,0.43
2022-11-07T01:08:08.927Z,0.37
2022-11-07T01:10:40.509Z,0.35
2022-11-07T01:13:06.938Z,0.39
2022-11-07T01:15:33.344Z,0.42
2022-11-07T01:17:59.778Z,0.40
2022-11-07T01:20:26.247Z,0.41
2022-11-07T01:22:52.692Z,0.47
2022-11-07T01:25:19.182Z,0.49
2022-11-07T01:27:45.575Z,0.53
2022-11-07T01:30:12.266Z,0.55
2022-11-07T01:32:38.791Z,0.57
2022-11-07T01:35:06.146Z,0.56
2022-11-07T01:37:32.685Z,0.57
2022-11-07T01:39:59.147Z,0.57
2022-11-07T01:42:25.853Z,0.63
2022-11-07T01:44:58.135Z,0.69
2022-11-07T01:47:31.114Z,0.72
2022-11-07T01:49:59.630Z,0.73
2022-11-07T01:52:31.204Z,0.74
2022-11-07T01:55:20.161Z,0.72
2022-11-07T01:57:54.163Z,0.74
2022-11-07T02:00:23.193Z,0.74
2022-11-07T02:02:58.920Z,0.67
2022-11-07T02:05:34.639Z,0.62
2022-11-07T02:08:04.129Z,0.62
2022-11-07T02:10:31.382Z,0.64
2022-11-07T02:12:58.946Z,0.58
2022-11-07T02:15:26.433Z,0.50
2022-11-07T02:17:54.270Z,0.49
2022-11-07T02:20:20.803Z,0.54
2022-11-07T02:23:10.892Z,0.62
2022-11-07T02:25:37.445Z,0.75
2022-11-07T02:28:08.090Z,0.84
2022-11-07T02:30:34.837Z,0.91
2022-11-07T02:33:01.951Z,0.92
2022-11-07T02:35:34.426Z,0.95
2022-11-07T02:38:04.084Z,0.92
2022-11-07T02:40:31.186Z,0.94
2022-11-07T02:42:59.668Z,1.00
2022-11-07T02:45:29.239Z,1.04
2022-11-07T02:47:55.915Z,1.02
2022-11-07T02:50:22.387Z,1.02
2022-11-07T02:52:48.883Z,1.05
2022-11-07T02:55:15.625Z,1.07
2022-11-07T02:57:42.675Z,1.13
2022-11-07T03:00:11.863Z,1.17
2022-11-07T03:02:38.956Z,1.26
2022-11-07T03:05:06.618Z,1.34
2022-11-07T03:07:33.017Z,1.38
2022-11-07T03:09:59.432Z,1.35
2022-11-07T03:12:25.839Z,1.26
2022-11-07T03:14:52.376Z,1.19
2022-11-07T03:17:18.862Z,1.17
2022-11-07T03:19:45.893Z,1.16
2022-11-07T03:22:12.286Z,1.17
2022-11-07T03:24:38.740Z,1.17
2022-11-07T03:27:05.306Z,1.14
2022-11-07T03:29:32.251Z,1.14
2022-11-07T03:31:58.664Z,1.20
2022-11-07T03:34:25.017Z,1.27
2022-11-07T03:36:51.455Z,1.32
2022-11-07T03:39:21.856Z,1.39
2022-11-07T03:41:52.026Z,1.47
2022-11-07T03:44:18.482Z,1.52
2022-11-07T03:46:44.924Z,1.58
2022-11-07T03:49:11.504Z,1.63
2022-11-07T03:51:38.043Z,1.67
2022-11-07T03:54:04.576Z,1.69
2022-11-07T03:56:31.047Z,1.67
2022-11-07T03:58:57.444Z,1.65
2022-11-07T04:01:24.074Z,1.56
2022-11-07T04:03:55.201Z,1.48
2022-11-07T04:06:22.936Z,1.43
2022-11-07T04:08:49.630Z,1.44
2022-11-07T04:11:34.583Z,1.50
2022-11-07T04:14:19.539Z,1.62
2022-11-07T04:17:04.591Z,1.71
2022-11-07T04:19:31.061Z,1.82
2022-11-07T04:21:57.505Z,1.87
2022-11-07T04:24:23.941Z,1.92
2022-11-07T04:27:08.839Z,1.97
2022-11-07T04:29:35.342Z,2.04
2022-11-07T04:32:01.753Z,2.10
2022-11-07T04:34:28.213Z,2.10
2022-11-07T04:36:54.606Z,2.10
2022-11-07T04:39:20.974Z,2.13
2022-11-07T04:41:47.614Z,2.12
2022-11-07T04:44:14.047Z,2.16
2022-11-07T04:46:40.469Z,2.17
2022-11-07T04:49:06.880Z,2.24
2022-11-07T04:51:33.348Z,2.30
2022-11-07T04:53:59.767Z,2.35
2022-11-07T04:56:28.364Z,2.39
2022-11-07T04:58:58.431Z,2.47
2022-11-07T05:01:24.796Z,2.53
2022-11-07T05:03:51.227Z,2.55
2022-11-07T05:06:18.466Z,2.61
2022-11-07T05:08:44.872Z,2.64
2022-11-07T05:11:11.247Z,2.70
2022-11-07T05:13:37.705Z,2.73
2022-11-07T05:16:04.652Z,2.78
2022-11-07T05:18:31.185Z,2.83
2022-11-07T05:20:57.722Z,2.87
2022-11-07T05:23:24.668Z,2.89
2022-11-07T05:25:51.957Z,2.92
2022-11-07T05:28:29.916Z,3.00
2022-11-07T05:31:03.411Z,3.09
2022-11-07T05:33:29.913Z,3.17
2022-11-07T05:35:56.511Z,3.24
2022-11-07T05:38:22.929Z,3.29
2022-11-07T05:40:49.467Z,3.27
2022-11-07T05:43:16.269Z,3.27
2022-11-07T05:45:43.083Z,3.36
2022-11-07T05:48:13.023Z,3.39
2022-11-07T05:50:40.535Z,3.42
2022-11-07T05:53:07.759Z,3.48
2022-11-07T05:55:34.208Z,3.51
2022-11-07T05:58:06.667Z,3.51
2022-11-07T06:00:33.636Z,3.54
2022-11-07T06:03:00.519Z,3.57
2022-11-07T06:05:28.457Z,3.59
2022-11-07T06:07:55.219Z,3.68
2022-11-07T06:10:22.545Z,3.71
2022-11-07T06:13:00.506Z,3.81
2022-11-07T06:15:29.242Z,3.86
2022-11-07T06:17:58.848Z,3.86
2022-11-07T06:20:25.484Z,3.89
2022-11-07T06:22:51.897Z,3.90
2022-11-07T06:25:18.259Z,3.95
2022-11-07T06:27:44.785Z,3.98
2022-11-07T06:30:11.698Z,3.97
2022-11-07T06:32:43.591Z,3.96
2022-11-07T06:35:10.947Z,3.95
2022-11-07T06:37:38.140Z,3.96
2022-11-07T06:40:05.181Z,3.99
2022-11-07T06:42:32.093Z,4.00
2022-11-07T06:44:58.736Z,4.01
2022-11-07T06:47:25.120Z,4.00
2022-11-07T06:49:51.435Z,4.03
2022-11-07T06:52:17.931Z,4.08
2022-11-07T06:54:44.464Z,4.14
2022-11-07T06:57:10.879Z,4.20
2022-11-07T06:59:37.332Z,4.24
2022-11-07T07:02:03.912Z,4.25
2022-11-07T07:04:30.917Z,4.28
2022-11-07T07:06:57.351Z,4.26
2022-11-07T07:09:23.788Z,4.22
2022-11-07T07:11:50.217Z,4.19
2022-11-07T07:14:16.631Z,4.21
2022-11-07T07:16:42.965Z,4.14
2022-11-07T07:19:11.727Z,4.10
2022-11-07T07:21:38.513Z,4.10
2022-11-07T07:24:05.352Z,4.11
2022-11-07T07:26:31.791Z,4.17
2022-11-07T07:28:58.204Z,4.26
2022-11-07T07:31:30.103Z,4.37
2022-11-07T07:33:57.134Z,4.48
2022-11-07T07:36:24.696Z,4.61
2022-11-07T07:38:51.349Z,4.79
2022-11-07T07:41:18.832Z,4.99
2022-11-07T07:43:45.710Z,5.18
2022-11-07T07:46:19.071Z,5.37
2022-11-07T07:48:45.491Z,5.58
2022-11-07T07:51:11.801Z,5.76
2022-11-07T07:53:38.273Z,5.93
2022-11-07T07:56:06.343Z,6.08
2022-11-07T07:58:33.177Z,6.22
2022-11-07T08:01:00.113Z,6.39
2022-11-07T08:03:32.179Z,6.54
2022-11-07T08:06:02.649Z,6.68
2022-11-07T08:08:31.486Z,6.77
2022-11-07T08:11:04.389Z,6.90
2022-11-07T08:13:31.045Z,7.01
2022-11-07T08:15:57.557Z,7.08
2022-11-07T08:18:24.542Z,7.12
2022-11-07T08:20:55.696Z,7.16
2022-11-07T08:23:23.807Z,7.21
2022-11-07T08:25:53.205Z,7.27
2022-11-07T08:28:21.682Z,7.30
2022-11-07T08:31:10.051Z,7.35
2022-11-07T08:33:36.749Z,7.43
2022-11-07T08:36:05.095Z,7.49
2022-11-07T08:38:33.575Z,7.59
2022-11-07T08:41:00.822Z,7.67
2022-11-07T08:43:27.274Z,7.75
2022-11-07T08:45:54.608Z,7.80
2022-11-07T08:48:22.409Z,7.87
2022-11-07T08:50:56.401Z,7.94
2022-11-07T08:53:24.060Z,7.96
2022-11-07T08:55:50.682Z,8.04
2022-11-07T08:58:18.577Z,8.12
2022-11-07T09:00:45.568Z,8.21
2022-11-07T09:06:00.298Z,8.44
2022-11-07T09:08:26.783Z,8.48
2022-11-07T09:10:53.320Z,8.50
2022-11-07T09:13:22.687Z,8.53
2022-11-07T09:15:51.419Z,8.53
2022-11-07T09:18:19.072Z,8.54
2022-11-07T09:20:45.589Z,8.56
2022-11-07T09:23:12.155Z,8.59
2022-11-07T09:25:38.597Z,8.65
2022-11-07T09:28:05.217Z,8.64
2022-11-07T09:30:31.960Z,8.63
2022-11-07T09:32:59.261Z,8.64
2022-11-07T09:35:25.991Z,8.68
2022-11-07T09:37:52.595Z,8.68
2022-11-07T09:40:19.024Z,8.71
2022-11-07T09:43:00.339Z,8.72
2022-11-07T09:45:29.449Z,8.77
2022-11-07T09:48:05.263Z,8.83
2022-11-07T09:50:40.628Z,8.89
2022-11-07T09:53:36.876Z,8.97
2022-11-07T09:56:05.069Z,9.00
2022-11-07T09:58:41.069Z,8.97
2022-11-07T10:01:11.802Z,9.01
2022-11-07T10:03:39.260Z,9.04
2022-11-07T10:06:24.311Z,9.05
2022-11-07T10:09:03.013Z,9.08
2022-11-07T10:11:56.419Z,9.11
2022-11-07T10:15:03.363Z,9.13
2022-11-07T10:18:11.250Z,9.18
2022-11-07T10:21:30.563Z,9.24
2022-11-07T10:23:49.536Z,9.32
2022-11-07T10:26:21.430Z,9.42
2022-11-07T10:28:57.123Z,9.53
2022-11-07T10:31:31.592Z,9.61
2022-11-07T10:34:14.441Z,9.71
2022-11-07T10:36:40.849Z,9.79
2022-11-07T10:39:15.698Z,9.81
2022-11-07T10:41:58.533Z,9.83
2022-11-07T10:44:26.787Z,9.81
2022-11-07T10:46:54.735Z,9.82
2022-11-07T10:49:30.411Z,9.83
2022-11-07T10:52:17.133Z,9.84
2022-11-07T10:54:46.487Z,9.87
2022-11-07T10:57:17.131Z,9.93
2022-11-07T10:59:49.355Z,9.92
2022-11-07T11:02:24.890Z,9.92
2022-11-07T11:05:02.504Z,9.93
2022-11-07T11:07:40.075Z,9.95
2022-11-07T11:10:21.964Z,9.97
2022-11-07T11:12:49.306Z,10.03
2022-11-07T11:15:20.772Z,10.12
2022-11-07T11:18:06.149Z,10.23
2022-11-07T11:20:37.402Z,10.40
2022-11-07T11:23:13.284Z,10.53
2022-11-07T11:25:45.680Z,10.63
2022-11-07T11:28:26.792Z,10.72
2022-11-07T11:31:10.124Z,10.78
2022-11-07T11:33:44.242Z,10.90
2022-11-07T11:36:21.257Z,10.99
2022-11-07T11:38:54.476Z,11.08
2022-11-07T11:41:48.143Z,11.18
2022-11-07T11:44:39.112Z,11.26
2022-11-07T11:47:28.110Z,11.34
2022-11-07T11:50:04.834Z,11.40
2022-11-07T11:52:31.414Z,11.47
2022-11-07T11:54:58.741Z,11.56
2022-11-07T11:57:48.607Z,11.61
2022-11-07T12:00:24.618Z,11.67
2022-11-07T12:03:11.208Z,11.64
2022-11-07T12:06:16.278Z,11.57
2022-11-07T12:08:54.997Z,11.53
2022-11-07T12:11:45.497Z,11.52
2022-11-07T12:14:23.895Z,11.54
2022-11-07T12:17:15.223Z,11.59
2022-11-07T12:20:02.174Z,11.63
2022-11-07T12:22:34.649Z,11.68
2022-11-07T12:25:09.577Z,11.69
2022-11-07T12:27:45.348Z,11.71
2022-11-07T12:30:11.723Z,11.78
2022-11-07T12:32:47.256Z,11.81
2022-11-07T12:35:43.102Z,11.79
2022-11-07T12:38:31.688Z,11.76
2022-11-07T12:40:58.479Z,11.74
2022-11-07T12:43:56.941Z,11.71
2022-11-07T12:46:34.324Z,11.70
2022-11-07T12:49:16.035Z,11.71
2022-11-07T12:51:42.428Z,11.69
2022-11-07T12:54:28.441Z,11.68
2022-11-07T12:56:56.826Z,11.67
2022-11-07T12:59:26.724Z,11.69
2022-11-07T13:02:02.480Z,11.71
2022-11-07T13:05:13.648Z,11.68
2022-11-07T13:07:49.430Z,11.68
2022-11-07T13:10:18.888Z,11.70
2022-11-07T13:13:04.392Z,11.73
2022-11-07T13:15:47.478Z,11.76
2022-11-07T13:18:26.390Z,11.78
2022-11-07T13:21:04.865Z,11.80
2022-11-07T13:23:32.244Z,11.82
2022-11-07T13:26:25.973Z,11.83
2022-11-07T13:28:59.458Z,11.83
2022-11-07T13:31:32.022Z,11.81
2022-11-07T13:34:18.741Z,11.76
2022-11-07T13:36:47.576Z,11.73
2022-11-07T13:39:15.228Z,11.72
2022-11-07T13:41:45.728Z,11.69
2022-11-07T13:44:27.544Z,11.64
2022-11-07T13:46:58.763Z,11.62
2022-11-07T13:49:32.988Z,11.62
2022-11-07T13:52:09.634Z,11.61
2022-11-07T13:54:49.828Z,11.59
2022-11-07T13:57:28.063Z,11.55
2022-11-07T14:00:01.022Z,11.53
2022-11-07T14:02:30.498Z,11.50
2022-11-07T14:05:18.054Z,11.48
2022-11-07T14:08:15.644Z,11.48
2022-11-07T14:10:47.330Z,11.49
2022-11-07T14:13:22.271Z,11.52
2022-11-07T14:15:52.888Z,11.53
2022-11-07T14:18:21.724Z,11.55
2022-11-07T14:20:54.356Z,11.55
2022-11-07T14:23:26.516Z,11.55
2022-11-07T14:26:04.371Z,11.56
2022-11-07T14:28:36.143Z,11.57
2022-11-07T14:31:05.973Z,11.56
2022-11-07T14:33:32.584Z,11.58
2022-11-07T14:36:05.233Z,11.60
2022-11-07T14:38:31.896Z,11.60
2022-11-07T14:41:01.148Z,11.57
2022-11-07T14:43:30.343Z,11.53
2022-11-07T14:46:18.157Z,11.47
2022-11-07T14:48:47.251Z,11.41
2022-11-07T14:51:17.179Z,11.34
2022-11-07T14:54:01.512Z,11.27
2022-11-07T14:56:44.551Z,11.17
2022-11-07T14:59:13.778Z,11.11
2022-11-07T15:01:55.335Z,11.03
2022-11-07T15:04:35.812Z,10.95
2022-11-07T15:07:17.319Z,10.86
2022-11-07T15:09:43.792Z,10.75
2022-11-07T15:12:17.280Z,10.61
2022-11-07T15:14:44.714Z,10.49
2022-11-07T15:17:23.739Z,10.41
2022-11-07T15:20:00.221Z,10.27
2022-11-07T15:22:38.012Z,10.12
2022-11-07T15:25:24.543Z,9.95
2022-11-07T15:27:50.955Z,9.78
2022-11-07T15:30:32.483Z,9.68
2022-11-07T15:32:59.801Z,9.58
2022-11-07T15:38:28.063Z,9.46
2022-11-07T15:40:54.959Z,9.40
2022-11-07T15:43:21.867Z,9.37
2022-11-07T15:45:51.353Z,9.33
2022-11-07T15:48:21.943Z,9.25
2022-11-07T15:50:48.990Z,9.15
2022-11-07T15:53:27.999Z,9.07
2022-11-07T15:55:57.284Z,9.01
2022-11-07T15:58:26.464Z,8.94
2022-11-07T16:00:53.829Z,8.87
2022-11-07T16:03:22.710Z,8.81
2022-11-07T16:05:51.492Z,8.74
2022-11-07T16:08:21.753Z,8.68
2022-11-07T16:10:51.095Z,8.60
2022-11-07T16:13:17.626Z,8.53
2022-11-07T16:15:49.143Z,8.47
2022-11-07T16:18:18.432Z,8.42
2022-11-07T16:20:46.863Z,8.40
2022-11-07T16:23:14.131Z,8.36
2022-11-07T16:25:42.648Z,8.30
2022-11-07T16:28:35.191Z,8.24
2022-11-07T16:31:02.139Z,8.18
2022-11-07T16:33:29.649Z,8.13
2022-11-07T16:35:59.481Z,8.09
2022-11-07T16:38:29.199Z,8.01
2022-11-07T16:40:58.200Z,7.96
2022-11-07T16:43:24.700Z,7.90
2022-11-07T16:45:55.268Z,7.84
2022-11-07T16:48:23.421Z,7.80
2022-11-07T16:50:51.035Z,7.77
2022-11-07T16:53:18.117Z,7.76
2022-11-07T16:55:53.087Z,7.74
2022-11-07T16:58:29.079Z,7.73
2022-11-07T17:00:58.535Z,7.74
2022-11-07T17:03:25.986Z,7.73
2022-11-07T17:05:58.036Z,7.75
2022-11-07T17:08:37.133Z,7.76
2022-11-07T17:11:04.835Z,7.80
2022-11-07T17:13:31.366Z,7.84
2022-11-07T17:15:57.988Z,7.90
2022-11-07T17:18:26.695Z,7.95
2022-11-07T17:20:53.844Z,8.01
2022-11-07T17:23:26.796Z,8.09
2022-11-07T17:25:55.383Z,8.18
2022-11-07T17:28:22.769Z,8.24
2022-11-07T17:30:49.310Z,8.30
2022-11-07T17:33:16.148Z,8.35
2022-11-07T17:35:42.686Z,8.41
2022-11-07T17:38:18.858Z,8.45
2022-11-07T17:40:45.997Z,8.51
2022-11-07T17:43:12.377Z,8.54
2022-11-07T17:45:39.654Z,8.58
2022-11-07T17:48:06.177Z,8.59
2022-11-07T17:50:32.653Z,8.63
2022-11-07T17:52:59.702Z,8.69
2022-11-07T17:55:26.244Z,8.73
2022-11-07T17:57:53.465Z,8.76
2022-11-07T18:00:23.100Z,8.74
2022-11-07T18:02:51.580Z,8.76
2022-11-07T18:05:21.668Z,8.79
2022-11-07T18:07:48.693Z,8.81
2022-11-07T18:10:16.035Z,8.86
2022-11-07T18:12:43.125Z,8.89
2022-11-07T18:15:11.998Z,8.92
2022-11-07T18:17:39.470Z,8.95
2022-11-07T18:20:07.844Z,8.98
2022-11-07T18:22:36.412Z,9.01
2022-11-07T18:25:07.311Z,9.03
2022-11-07T18:27:34.434Z,9.07
2022-11-07T18:30:02.392Z,9.08
2022-11-07T18:32:35.528Z,9.08
2022-11-07T18:35:05.401Z,9.08
2022-11-07T18:37:31.812Z,9.11
2022-11-07T18:39:58.283Z,9.11
2022-11-07T18:42:24.708Z,9.11
2022-11-07T18:44:51.574Z,9.13
2022-11-07T18:47:17.976Z,9.15
2022-11-07T18:49:44.442Z,9.19
2022-11-07T18:52:10.860Z,9.21
2022-11-07T18:54:37.363Z,9.24
2022-11-07T18:57:03.856Z,9.25
2022-11-07T18:59:30.301Z,9.25
2022-11-07T19:01:56.762Z,9.27
2022-11-07T19:04:23.497Z,9.29
2022-11-07T19:06:59.058Z,9.32
2022-11-07T19:09:29.362Z,9.34
2022-11-07T19:11:57.804Z,9.37
2022-11-07T19:14:26.020Z,9.41
2022-11-07T19:16:53.202Z,9.43
2022-11-07T19:19:19.689Z,9.45
2022-11-07T19:21:46.140Z,9.46
2022-11-07T19:24:12.845Z,9.46
2022-11-07T19:26:39.855Z,9.47
2022-11-07T19:29:10.729Z,9.45
2022-11-07T19:31:37.882Z,9.43
2022-11-07T19:34:05.038Z,9.43
2022-11-07T19:36:32.133Z,9.44
2022-11-07T19:38:58.820Z,9.45
2022-11-07T19:41:25.520Z,9.46
2022-11-07T19:43:52.018Z,9.47
2022-11-07T19:46:21.152Z,9.49
2022-11-07T19:48:48.817Z,9.49
2022-11-07T19:51:22.144Z,9.51
2022-11-07T19:53:57.628Z,9.53
2022-11-07T19:56:26.251Z,9.53
2022-11-07T19:58:53.814Z,9.50
2022-11-07T20:01:24.110Z,9.49
2022-11-07T20:03:52.239Z,9.48
2022-11-07T20:06:22.324Z,9.48
2022-11-07T20:08:49.533Z,9.50
2022-11-07T20:11:19.251Z,9.56
2022-11-07T20:13:46.418Z,9.57
2022-11-07T20:16:14.257Z,9.58
2022-11-07T20:18:41.391Z,9.59
2022-11-07T20:21:12.537Z,9.60
2022-11-07T20:23:40.450Z,9.62
2022-11-07T20:26:13.476Z,9.61
2022-11-07T20:28:40.032Z,9.60
2022-11-07T20:31:14.875Z,9.59
2022-11-07T20:33:42.011Z,9.58
2022-11-07T20:36:12.336Z,9.57
2022-11-07T20:38:40.195Z,9.58
2022-11-07T20:41:07.148Z,9.57
2022-11-07T20:43:33.836Z,9.58
2022-11-07T20:46:05.396Z,9.60
2022-11-07T20:48:32.594Z,9.60
2022-11-07T20:51:09.474Z,9.60
2022-11-07T20:53:37.768Z,9.58
2022-11-07T20:56:06.137Z,9.54
2022-11-07T20:58:34.727Z,9.48
2022-11-07T21:01:01.838Z,9.46
2022-11-07T21:03:28.545Z,9.43
2022-11-07T21:05:55.139Z,9.36
2022-11-07T21:08:21.780Z,9.34
2022-11-07T21:10:49.912Z,9.35
2022-11-07T21:13:17.174Z,9.36
2022-11-07T21:15:44.663Z,9.39
2022-11-07T21:18:12.435Z,9.42
2022-11-07T21:20:40.001Z,9.44
2022-11-07T21:23:07.756Z,9.44
2022-11-07T21:25:42.280Z,9.46
2022-11-07T21:28:16.456Z,9.46
2022-11-07T21:31:00.992Z,9.45
2022-11-07T21:33:27.897Z,9.44
2022-11-07T21:35:54.464Z,9.46
2022-11-07T21:38:23.204Z,9.48
2022-11-07T21:40:50.225Z,9.48
2022-11-07T21:43:16.887Z,9.48
2022-11-07T21:45:44.262Z,9.49
2022-11-07T21:48:10.746Z,9.49
2022-11-07T21:50:45.273Z,9.52
2022-11-07T21:53:12.637Z,9.54
2022-11-07T21:55:39.111Z,9.56
2022-11-07T21:58:05.851Z,9.58
2022-11-07T22:00:36.317Z,9.59
2022-11-07T22:03:04.460Z,9.60
2022-11-07T22:05:31.016Z,9.59
2022-11-07T22:07:58.359Z,9.59
2022-11-07T22:10:24.880Z,9.66
2022-11-07T22:12:52.238Z,9.62
2022-11-07T22:15:18.876Z,9.61
2022-11-07T22:17:45.308Z,9.68
2022-11-07T22:20:12.460Z,9.69
2022-11-07T22:22:38.894Z,9.63
2022-11-07T22:25:06.045Z,9.58
2022-11-07T22:27:32.477Z,9.51
2022-11-07T22:29:59.014Z,9.46
2022-11-07T22:32:25.462Z,9.35
2022-11-07T22:34:51.983Z,9.29
2022-11-07T22:37:18.419Z,9.21
2022-11-07T22:39:44.953Z,9.22
2022-11-07T22:42:11.390Z,9.18
2022-11-07T22:44:38.029Z,9.14
2022-11-07T22:47:04.528Z,9.13
2022-11-07T22:49:30.971Z,9.09
2022-11-07T22:51:57.430Z,9.07
2022-11-07T22:54:23.864Z,9.08
2022-11-07T22:56:50.401Z,9.06
2022-11-07T22:59:16.937Z,9.02
2022-11-07T23:01:43.555Z,8.97
2022-11-07T23:04:15.159Z,8.95
2022-11-07T23:06:41.719Z,8.94
2022-11-07T23:09:10.147Z,8.91
2022-11-07T23:11:51.855Z,8.90
2022-11-07T23:14:20.834Z,8.86
2022-11-07T23:16:52.705Z,8.85
2022-11-07T23:19:22.834Z,8.82
2022-11-07T23:21:50.789Z,8.78
2022-11-07T23:24:18.081Z,8.73
2022-11-07T23:26:44.573Z,8.70
2022-11-07T23:29:16.900Z,8.64
2022-11-07T23:31:46.425Z,8.55
2022-11-07T23:34:13.809Z,8.50
2022-11-07T23:36:43.211Z,8.45
2022-11-07T23:39:14.970Z,8.41
2022-11-07T23:41:42.325Z,8.40
2022-11-07T23:44:09.712Z,8.39
2022-11-07T23:46:55.533Z,8.37
2022-11-07T23:49:54.158Z,8.38
2022-11-07T23:52:20.797Z,8.33
2022-11-07T23:55:06.735Z,8.36
2022-11-07T23:57:54.996Z,8.39
